sensor_id;sensor_type;location;lat;lon;timestamp;pressure;altitude;pressure_sealevel;temperature
79495;BMP180;68951;53.130;18.104;2023-04-24T00:00:14;100110.60;;;
79495;BMP180;68951;53.130;18.104;2023-04-24T00:03:02;100114.20;;;
79495;BMP180;68951;53.130;18.104;2023-04-24T00:05:29;100114.80;;;
79495;BMP180;68951;53.130;18.104;2023-04-24T00:07:56;100111.60;;;
79495;BMP180;68951;53.130;18.104;2023-04-24T00:10:23;100112.20;;;
79495;BMP180;68951;53.130;18.104;2023-04-24T00:12:50;100109.60;;;
79495;BMP180;68951;53.130;18.104;2023-04-24T00:15:16;100110.00;;;
79495;BMP180;68951;53.130;18.104;2023-04-24T00:17:43;100102.60;;;
79495;BMP180;68951;53.130;18.104;2023-04-24T00:20:10;100097.20;;;
79495;BMP180;68951;53.130;18.104;2023-04-24T00:22:37;100093.40;;;
79495;BMP180;68951;53.130;18.104;2023-04-24T00:25:05;100091.20;;;
79495;BMP180;68951;53.130;18.104;2023-04-24T00:27:32;100089.20;;;
79495;BMP180;68951;53.130;18.104;2023-04-24T00:29:59;100087.80;;;
79495;BMP180;68951;53.130;18.104;2023-04-24T00:32:26;100089.20;;;
79495;BMP180;68951;53.130;18.104;2023-04-24T00:34:53;100089.40;;;
79495;BMP180;68951;53.130;18.104;2023-04-24T00:37:19;100086.40;;;
79495;BMP180;68951;53.130;18.104;2023-04-24T00:39:47;100083.20;;;
79495;BMP180;68951;53.130;18.104;2023-04-24T00:42:14;100077.00;;;
79495;BMP180;68951;53.130;18.104;2023-04-24T00:44:41;100067.20;;;
79495;BMP180;68951;53.130;18.104;2023-04-24T00:47:08;100063.60;;;
79495;BMP180;68951;53.130;18.104;2023-04-24T00:49:35;100060.00;;;
79495;BMP180;68951;53.130;18.104;2023-04-24T00:52:02;100062.80;;;
79495;BMP180;68951;53.130;18.104;2023-04-24T00:54:36;100067.00;;;
79495;BMP180;68951;53.130;18.104;2023-04-24T00:57:04;100063.40;;;
79495;BMP180;68951;53.130;18.104;2023-04-24T00:59:31;100064.20;;;
79495;BMP180;68951;53.130;18.104;2023-04-24T01:01:59;100074.60;;;
79495;BMP180;68951;53.130;18.104;2023-04-24T01:04:26;100076.00;;;
79495;BMP180;68951;53.130;18.104;2023-04-24T01:06:55;100071.60;;;
79495;BMP180;68951;53.130;18.104;2023-04-24T01:09:26;100067.40;;;
79495;BMP180;68951;53.130;18.104;2023-04-24T01:11:53;100067.80;;;
79495;BMP180;68951;53.130;18.104;2023-04-24T01:14:20;100064.40;;;
79495;BMP180;68951;53.130;18.104;2023-04-24T01:16:47;100059.00;;;
79495;BMP180;68951;53.130;18.104;2023-04-24T01:19:15;100056.20;;;
79495;BMP180;68951;53.130;18.104;2023-04-24T01:21:45;100059.20;;;
79495;BMP180;68951;53.130;18.104;2023-04-24T01:24:14;100051.20;;;
79495;BMP180;68951;53.130;18.104;2023-04-24T01:26:40;100047.60;;;
79495;BMP180;68951;53.130;18.104;2023-04-24T01:29:07;100048.40;;;
79495;BMP180;68951;53.130;18.104;2023-04-24T01:31:35;100042.80;;;
79495;BMP180;68951;53.130;18.104;2023-04-24T01:34:03;100040.40;;;
79495;BMP180;68951;53.130;18.104;2023-04-24T01:36:30;100041.80;;;
79495;BMP180;68951;53.130;18.104;2023-04-24T01:38:58;100043.60;;;
79495;BMP180;68951;53.130;18.104;2023-04-24T01:41:25;100041.40;;;
79495;BMP180;68951;53.130;18.104;2023-04-24T01:43:53;100042.40;;;
79495;BMP180;68951;53.130;18.104;2023-04-24T01:46:20;100040.00;;;
79495;BMP180;68951;53.130;18.104;2023-04-24T01:48:47;100036.40;;;
79495;BMP180;68951;53.130;18.104;2023-04-24T01:51:14;100036.60;;;
79495;BMP180;68951;53.130;18.104;2023-04-24T01:53:41;100042.60;;;
79495;BMP180;68951;53.130;18.104;2023-04-24T01:56:09;100039.20;;;
79495;BMP180;68951;53.130;18.104;2023-04-24T01:58:36;100036.80;;;
79495;BMP180;68951;53.130;18.104;2023-04-24T02:01:03;100034.40;;;
79495;BMP180;68951;53.130;18.104;2023-04-24T02:03:30;100038.40;;;
79495;BMP180;68951;53.130;18.104;2023-04-24T02:05:56;100036.20;;;
79495;BMP180;68951;53.130;18.104;2023-04-24T02:08:23;100032.20;;;
79495;BMP180;68951;53.130;18.104;2023-04-24T02:10:51;100025.60;;;
79495;BMP180;68951;53.130;18.104;2023-04-24T02:13:18;100027.40;;;
79495;BMP180;68951;53.130;18.104;2023-04-24T02:15:44;100029.20;;;
79495;BMP180;68951;53.130;18.104;2023-04-24T02:18:11;100028.80;;;
79495;BMP180;68951;53.130;18.104;2023-04-24T02:20:39;100026.60;;;
79495;BMP180;68951;53.130;18.104;2023-04-24T02:23:06;100022.80;;;
79495;BMP180;68951;53.130;18.104;2023-04-24T02:25:33;100021.00;;;
79495;BMP180;68951;53.130;18.104;2023-04-24T02:28:00;100018.00;;;
79495;BMP180;68951;53.130;18.104;2023-04-24T02:30:27;100009.40;;;
79495;BMP180;68951;53.130;18.104;2023-04-24T02:32:53;100004.40;;;
79495;BMP180;68951;53.130;18.104;2023-04-24T02:35:20;100000.20;;;
79495;BMP180;68951;53.130;18.104;2023-04-24T02:37:47;99999.60;;;
79495;BMP180;68951;53.130;18.104;2023-04-24T02:40:14;100004.60;;;
79495;BMP180;68951;53.130;18.104;2023-04-24T02:42:41;99999.80;;;
79495;BMP180;68951;53.130;18.104;2023-04-24T02:45:08;100000.80;;;
79495;BMP180;68951;53.130;18.104;2023-04-24T02:47:35;100005.00;;;
79495;BMP180;68951;53.130;18.104;2023-04-24T02:50:03;100000.80;;;
79495;BMP180;68951;53.130;18.104;2023-04-24T02:52:30;99996.00;;;
79495;BMP180;68951;53.130;18.104;2023-04-24T02:54:57;99986.60;;;
79495;BMP180;68951;53.130;18.104;2023-04-24T02:57:24;99993.40;;;
79495;BMP180;68951;53.130;18.104;2023-04-24T02:59:51;99990.80;;;
79495;BMP180;68951;53.130;18.104;2023-04-24T03:02:18;99992.00;;;
79495;BMP180;68951;53.130;18.104;2023-04-24T03:04:45;99990.40;;;
79495;BMP180;68951;53.130;18.104;2023-04-24T03:07:11;99990.60;;;
79495;BMP180;68951;53.130;18.104;2023-04-24T03:09:38;99992.00;;;
79495;BMP180;68951;53.130;18.104;2023-04-24T03:12:05;99992.40;;;
79495;BMP180;68951;53.130;18.104;2023-04-24T03:14:32;99992.80;;;
79495;BMP180;68951;53.130;18.104;2023-04-24T03:16:59;99999.20;;;
79495;BMP180;68951;53.130;18.104;2023-04-24T03:19:27;99996.00;;;
79495;BMP180;68951;53.130;18.104;2023-04-24T03:21:53;99992.20;;;
79495;BMP180;68951;53.130;18.104;2023-04-24T03:24:20;99989.60;;;
79495;BMP180;68951;53.130;18.104;2023-04-24T03:26:47;99995.40;;;
79495;BMP180;68951;53.130;18.104;2023-04-24T03:29:13;99991.20;;;
79495;BMP180;68951;53.130;18.104;2023-04-24T03:31:40;99995.40;;;
79495;BMP180;68951;53.130;18.104;2023-04-24T03:34:07;99999.20;;;
79495;BMP180;68951;53.130;18.104;2023-04-24T03:36:34;100001.00;;;
79495;BMP180;68951;53.130;18.104;2023-04-24T03:39:00;100002.80;;;
79495;BMP180;68951;53.130;18.104;2023-04-24T03:41:27;100012.40;;;
79495;BMP180;68951;53.130;18.104;2023-04-24T03:43:54;100015.40;;;
79495;BMP180;68951;53.130;18.104;2023-04-24T03:46:21;100010.80;;;
79495;BMP180;68951;53.130;18.104;2023-04-24T03:48:48;100010.20;;;
79495;BMP180;68951;53.130;18.104;2023-04-24T03:51:15;100011.40;;;
79495;BMP180;68951;53.130;18.104;2023-04-24T03:53:42;100003.60;;;
79495;BMP180;68951;53.130;18.104;2023-04-24T03:56:09;99999.20;;;
79495;BMP180;68951;53.130;18.104;2023-04-24T03:58:35;99997.40;;;
79495;BMP180;68951;53.130;18.104;2023-04-24T04:01:02;100000.60;;;
79495;BMP180;68951;53.130;18.104;2023-04-24T04:03:29;99998.40;;;
79495;BMP180;68951;53.130;18.104;2023-04-24T04:05:56;99989.20;;;
79495;BMP180;68951;53.130;18.104;2023-04-24T04:08:23;99987.80;;;
79495;BMP180;68951;53.130;18.104;2023-04-24T04:10:49;99979.80;;;
79495;BMP180;68951;53.130;18.104;2023-04-24T04:13:16;99977.40;;;
79495;BMP180;68951;53.130;18.104;2023-04-24T04:15:43;99977.20;;;
79495;BMP180;68951;53.130;18.104;2023-04-24T04:18:10;99969.20;;;
79495;BMP180;68951;53.130;18.104;2023-04-24T04:20:37;99966.80;;;
79495;BMP180;68951;53.130;18.104;2023-04-24T04:23:03;99974.40;;;
79495;BMP180;68951;53.130;18.104;2023-04-24T04:25:30;99972.80;;;
79495;BMP180;68951;53.130;18.104;2023-04-24T04:27:57;99971.00;;;
79495;BMP180;68951;53.130;18.104;2023-04-24T04:30:26;99973.60;;;
79495;BMP180;68951;53.130;18.104;2023-04-24T04:32:52;99973.60;;;
79495;BMP180;68951;53.130;18.104;2023-04-24T04:35:19;99971.20;;;
79495;BMP180;68951;53.130;18.104;2023-04-24T04:37:46;99972.20;;;
79495;BMP180;68951;53.130;18.104;2023-04-24T04:40:13;99976.20;;;
79495;BMP180;68951;53.130;18.104;2023-04-24T04:42:39;99969.80;;;
79495;BMP180;68951;53.130;18.104;2023-04-24T04:45:08;99968.20;;;
79495;BMP180;68951;53.130;18.104;2023-04-24T04:47:35;99973.00;;;
79495;BMP180;68951;53.130;18.104;2023-04-24T04:50:02;99975.40;;;
79495;BMP180;68951;53.130;18.104;2023-04-24T04:52:30;99973.20;;;
79495;BMP180;68951;53.130;18.104;2023-04-24T04:54:57;99975.00;;;
79495;BMP180;68951;53.130;18.104;2023-04-24T04:57:24;99968.60;;;
79495;BMP180;68951;53.130;18.104;2023-04-24T04:59:51;99968.80;;;
79495;BMP180;68951;53.130;18.104;2023-04-24T05:02:18;99961.80;;;
79495;BMP180;68951;53.130;18.104;2023-04-24T05:04:44;99955.40;;;
79495;BMP180;68951;53.130;18.104;2023-04-24T05:07:11;99948.40;;;
79495;BMP180;68951;53.130;18.104;2023-04-24T05:09:38;99951.40;;;
79495;BMP180;68951;53.130;18.104;2023-04-24T05:12:05;99954.80;;;
79495;BMP180;68951;53.130;18.104;2023-04-24T05:14:32;99952.00;;;
79495;BMP180;68951;53.130;18.104;2023-04-24T05:16:59;99957.40;;;
79495;BMP180;68951;53.130;18.104;2023-04-24T05:19:26;99958.20;;;
79495;BMP180;68951;53.130;18.104;2023-04-24T05:21:53;99956.80;;;
79495;BMP180;68951;53.130;18.104;2023-04-24T05:24:20;99954.80;;;
79495;BMP180;68951;53.130;18.104;2023-04-24T05:26:47;99950.40;;;
79495;BMP180;68951;53.130;18.104;2023-04-24T05:29:14;99951.80;;;
79495;BMP180;68951;53.130;18.104;2023-04-24T05:31:41;99950.00;;;
79495;BMP180;68951;53.130;18.104;2023-04-24T05:34:07;99947.00;;;
79495;BMP180;68951;53.130;18.104;2023-04-24T05:36:34;99950.40;;;
79495;BMP180;68951;53.130;18.104;2023-04-24T05:39:01;99953.20;;;
79495;BMP180;68951;53.130;18.104;2023-04-24T05:41:28;99951.80;;;
79495;BMP180;68951;53.130;18.104;2023-04-24T05:43:55;99949.80;;;
79495;BMP180;68951;53.130;18.104;2023-04-24T05:46:22;99946.00;;;
79495;BMP180;68951;53.130;18.104;2023-04-24T05:48:48;99953.20;;;
79495;BMP180;68951;53.130;18.104;2023-04-24T05:51:16;99948.60;;;
79495;BMP180;68951;53.130;18.104;2023-04-24T05:53:50;99948.20;;;
79495;BMP180;68951;53.130;18.104;2023-04-24T05:56:17;99948.60;;;
79495;BMP180;68951;53.130;18.104;2023-04-24T05:58:45;99948.80;;;
79495;BMP180;68951;53.130;18.104;2023-04-24T06:01:13;99945.60;;;
79495;BMP180;68951;53.130;18.104;2023-04-24T06:03:41;99944.80;;;
79495;BMP180;68951;53.130;18.104;2023-04-24T06:06:08;99954.20;;;
79495;BMP180;68951;53.130;18.104;2023-04-24T06:08:35;99950.00;;;
79495;BMP180;68951;53.130;18.104;2023-04-24T06:11:02;99948.40;;;
79495;BMP180;68951;53.130;18.104;2023-04-24T06:13:29;99940.80;;;
79495;BMP180;68951;53.130;18.104;2023-04-24T06:15:56;99944.00;;;
79495;BMP180;68951;53.130;18.104;2023-04-24T06:18:23;99941.20;;;
79495;BMP180;68951;53.130;18.104;2023-04-24T06:20:50;99941.40;;;
79495;BMP180;68951;53.130;18.104;2023-04-24T06:23:17;99941.00;;;
79495;BMP180;68951;53.130;18.104;2023-04-24T06:25:43;99938.60;;;
79495;BMP180;68951;53.130;18.104;2023-04-24T06:28:10;99938.40;;;
79495;BMP180;68951;53.130;18.104;2023-04-24T06:30:37;99928.80;;;
79495;BMP180;68951;53.130;18.104;2023-04-24T06:33:04;99927.20;;;
79495;BMP180;68951;53.130;18.104;2023-04-24T06:35:31;99926.40;;;
79495;BMP180;68951;53.130;18.104;2023-04-24T06:37:58;99923.00;;;
79495;BMP180;68951;53.130;18.104;2023-04-24T06:40:25;99923.20;;;
79495;BMP180;68951;53.130;18.104;2023-04-24T06:42:51;99919.80;;;
79495;BMP180;68951;53.130;18.104;2023-04-24T06:45:19;99916.80;;;
79495;BMP180;68951;53.130;18.104;2023-04-24T06:47:47;99918.20;;;
79495;BMP180;68951;53.130;18.104;2023-04-24T06:50:14;99922.00;;;
79495;BMP180;68951;53.130;18.104;2023-04-24T06:52:44;99919.80;;;
79495;BMP180;68951;53.130;18.104;2023-04-24T06:55:11;99922.40;;;
79495;BMP180;68951;53.130;18.104;2023-04-24T06:57:39;99920.00;;;
79495;BMP180;68951;53.130;18.104;2023-04-24T07:00:07;99920.40;;;
79495;BMP180;68951;53.130;18.104;2023-04-24T07:02:36;99924.20;;;
79495;BMP180;68951;53.130;18.104;2023-04-24T07:05:04;99920.80;;;
79495;BMP180;68951;53.130;18.104;2023-04-24T07:07:31;99918.80;;;
79495;BMP180;68951;53.130;18.104;2023-04-24T07:09:58;99916.60;;;
79495;BMP180;68951;53.130;18.104;2023-04-24T07:12:25;99915.20;;;
79495;BMP180;68951;53.130;18.104;2023-04-24T07:14:52;99916.60;;;
79495;BMP180;68951;53.130;18.104;2023-04-24T07:17:19;99914.20;;;
79495;BMP180;68951;53.130;18.104;2023-04-24T07:19:45;99917.80;;;
79495;BMP180;68951;53.130;18.104;2023-04-24T07:22:12;99909.20;;;
79495;BMP180;68951;53.130;18.104;2023-04-24T07:24:46;99913.40;;;
79495;BMP180;68951;53.130;18.104;2023-04-24T07:27:13;99909.60;;;
79495;BMP180;68951;53.130;18.104;2023-04-24T07:29:41;99911.80;;;
79495;BMP180;68951;53.130;18.104;2023-04-24T07:32:08;99906.80;;;
79495;BMP180;68951;53.130;18.104;2023-04-24T07:34:35;99910.20;;;
79495;BMP180;68951;53.130;18.104;2023-04-24T07:37:02;99905.60;;;
79495;BMP180;68951;53.130;18.104;2023-04-24T07:39:29;99917.00;;;
79495;BMP180;68951;53.130;18.104;2023-04-24T07:41:57;99913.20;;;
79495;BMP180;68951;53.130;18.104;2023-04-24T07:44:25;99920.00;;;
79495;BMP180;68951;53.130;18.104;2023-04-24T07:46:53;99918.60;;;
79495;BMP180;68951;53.130;18.104;2023-04-24T07:49:20;99916.20;;;
79495;BMP180;68951;53.130;18.104;2023-04-24T07:51:46;99910.20;;;
79495;BMP180;68951;53.130;18.104;2023-04-24T07:54:13;99900.00;;;
79495;BMP180;68951;53.130;18.104;2023-04-24T07:56:41;99904.80;;;
79495;BMP180;68951;53.130;18.104;2023-04-24T07:59:11;99905.60;;;
79495;BMP180;68951;53.130;18.104;2023-04-24T08:01:37;99901.80;;;
79495;BMP180;68951;53.130;18.104;2023-04-24T08:04:05;99905.60;;;
79495;BMP180;68951;53.130;18.104;2023-04-24T08:06:32;99909.40;;;
79495;BMP180;68951;53.130;18.104;2023-04-24T08:09:00;99906.20;;;
79495;BMP180;68951;53.130;18.104;2023-04-24T08:11:27;99903.20;;;
79495;BMP180;68951;53.130;18.104;2023-04-24T08:13:54;99900.80;;;
79495;BMP180;68951;53.130;18.104;2023-04-24T08:16:21;99903.80;;;
79495;BMP180;68951;53.130;18.104;2023-04-24T08:18:48;99906.60;;;
79495;BMP180;68951;53.130;18.104;2023-04-24T08:21:15;99907.80;;;
79495;BMP180;68951;53.130;18.104;2023-04-24T08:23:45;99910.60;;;
79495;BMP180;68951;53.130;18.104;2023-04-24T08:26:13;99913.00;;;
79495;BMP180;68951;53.130;18.104;2023-04-24T08:28:40;99910.80;;;
79495;BMP180;68951;53.130;18.104;2023-04-24T08:31:06;99907.60;;;
79495;BMP180;68951;53.130;18.104;2023-04-24T08:33:33;99908.60;;;
79495;BMP180;68951;53.130;18.104;2023-04-24T08:36:05;99904.80;;;
79495;BMP180;68951;53.130;18.104;2023-04-24T08:38:33;99901.20;;;
79495;BMP180;68951;53.130;18.104;2023-04-24T08:41:01;99896.00;;;
79495;BMP180;68951;53.130;18.104;2023-04-24T08:43:28;99899.00;;;
79495;BMP180;68951;53.130;18.104;2023-04-24T08:45:56;99895.20;;;
79495;BMP180;68951;53.130;18.104;2023-04-24T08:48:23;99898.40;;;
79495;BMP180;68951;53.130;18.104;2023-04-24T08:50:50;99905.60;;;
79495;BMP180;68951;53.130;18.104;2023-04-24T08:53:18;99899.60;;;
79495;BMP180;68951;53.130;18.104;2023-04-24T08:55:48;99896.00;;;
79495;BMP180;68951;53.130;18.104;2023-04-24T08:58:16;99902.80;;;
79495;BMP180;68951;53.130;18.104;2023-04-24T09:00:43;99901.20;;;
79495;BMP180;68951;53.130;18.104;2023-04-24T09:03:15;99904.40;;;
79495;BMP180;68951;53.130;18.104;2023-04-24T09:05:44;99903.20;;;
79495;BMP180;68951;53.130;18.104;2023-04-24T09:08:18;99902.60;;;
79495;BMP180;68951;53.130;18.104;2023-04-24T09:10:45;99909.60;;;
79495;BMP180;68951;53.130;18.104;2023-04-24T09:13:13;99910.00;;;
79495;BMP180;68951;53.130;18.104;2023-04-24T09:15:41;99909.60;;;
79495;BMP180;68951;53.130;18.104;2023-04-24T09:18:08;99909.20;;;
79495;BMP180;68951;53.130;18.104;2023-04-24T09:20:35;99914.40;;;
79495;BMP180;68951;53.130;18.104;2023-04-24T09:23:22;99913.40;;;
79495;BMP180;68951;53.130;18.104;2023-04-24T09:25:55;99914.20;;;
79495;BMP180;68951;53.130;18.104;2023-04-24T09:28:35;99916.60;;;
79495;BMP180;68951;53.130;18.104;2023-04-24T09:31:04;99910.80;;;
79495;BMP180;68951;53.130;18.104;2023-04-24T09:33:31;99916.00;;;
79495;BMP180;68951;53.130;18.104;2023-04-24T09:35:58;99910.60;;;
79495;BMP180;68951;53.130;18.104;2023-04-24T09:38:36;99907.60;;;
79495;BMP180;68951;53.130;18.104;2023-04-24T09:41:08;99901.00;;;
79495;BMP180;68951;53.130;18.104;2023-04-24T09:43:39;99893.80;;;
79495;BMP180;68951;53.130;18.104;2023-04-24T09:46:07;99889.40;;;
79495;BMP180;68951;53.130;18.104;2023-04-24T09:48:37;99887.80;;;
79495;BMP180;68951;53.130;18.104;2023-04-24T09:51:05;99889.00;;;
79495;BMP180;68951;53.130;18.104;2023-04-24T09:53:38;99885.40;;;
79495;BMP180;68951;53.130;18.104;2023-04-24T09:56:10;99881.80;;;
79495;BMP180;68951;53.130;18.104;2023-04-24T09:58:37;99877.60;;;
79495;BMP180;68951;53.130;18.104;2023-04-24T10:01:04;99876.00;;;
79495;BMP180;68951;53.130;18.104;2023-04-24T10:03:33;99868.40;;;
79495;BMP180;68951;53.130;18.104;2023-04-24T10:06:04;99873.60;;;
79495;BMP180;68951;53.130;18.104;2023-04-24T10:08:40;99869.40;;;
79495;BMP180;68951;53.130;18.104;2023-04-24T10:11:07;99869.20;;;
79495;BMP180;68951;53.130;18.104;2023-04-24T10:13:35;99868.80;;;
79495;BMP180;68951;53.130;18.104;2023-04-24T10:16:03;99862.80;;;
79495;BMP180;68951;53.130;18.104;2023-04-24T10:18:30;99858.00;;;
79495;BMP180;68951;53.130;18.104;2023-04-24T10:21:00;99859.20;;;
79495;BMP180;68951;53.130;18.104;2023-04-24T10:23:28;99861.20;;;
79495;BMP180;68951;53.130;18.104;2023-04-24T10:25:55;99864.40;;;
79495;BMP180;68951;53.130;18.104;2023-04-24T10:28:24;99858.40;;;
79495;BMP180;68951;53.130;18.104;2023-04-24T10:30:54;99859.80;;;
79495;BMP180;68951;53.130;18.104;2023-04-24T10:33:22;99860.20;;;
79495;BMP180;68951;53.130;18.104;2023-04-24T10:35:51;99861.80;;;
79495;BMP180;68951;53.130;18.104;2023-04-24T10:38:26;99864.20;;;
79495;BMP180;68951;53.130;18.104;2023-04-24T10:41:10;99861.00;;;
79495;BMP180;68951;53.130;18.104;2023-04-24T10:43:42;99864.60;;;
79495;BMP180;68951;53.130;18.104;2023-04-24T10:46:10;99868.00;;;
79495;BMP180;68951;53.130;18.104;2023-04-24T10:48:42;99877.60;;;
79495;BMP180;68951;53.130;18.104;2023-04-24T10:51:12;99873.60;;;
79495;BMP180;68951;53.130;18.104;2023-04-24T10:53:40;99876.60;;;
79495;BMP180;68951;53.130;18.104;2023-04-24T10:56:09;99870.40;;;
79495;BMP180;68951;53.130;18.104;2023-04-24T10:58:51;99875.00;;;
79495;BMP180;68951;53.130;18.104;2023-04-24T11:01:27;99870.60;;;
79495;BMP180;68951;53.130;18.104;2023-04-24T11:04:00;99869.20;;;
79495;BMP180;68951;53.130;18.104;2023-04-24T11:06:36;99872.40;;;
79495;BMP180;68951;53.130;18.104;2023-04-24T11:09:06;99872.00;;;
79495;BMP180;68951;53.130;18.104;2023-04-24T11:11:36;99874.60;;;
79495;BMP180;68951;53.130;18.104;2023-04-24T11:14:08;99872.20;;;
79495;BMP180;68951;53.130;18.104;2023-04-24T11:16:51;99876.40;;;
79495;BMP180;68951;53.130;18.104;2023-04-24T11:19:22;99887.20;;;
79495;BMP180;68951;53.130;18.104;2023-04-24T11:22:00;99884.20;;;
79495;BMP180;68951;53.130;18.104;2023-04-24T11:24:48;99886.20;;;
79495;BMP180;68951;53.130;18.104;2023-04-24T11:27:20;99889.40;;;
79495;BMP180;68951;53.130;18.104;2023-04-24T11:35:03;99886.60;;;
79495;BMP180;68951;53.130;18.104;2023-04-24T11:37:39;99889.60;;;
79495;BMP180;68951;53.130;18.104;2023-04-24T11:40:10;99890.60;;;
79495;BMP180;68951;53.130;18.104;2023-04-24T11:42:40;99894.80;;;
79495;BMP180;68951;53.130;18.104;2023-04-24T11:45:10;99893.00;;;
79495;BMP180;68951;53.130;18.104;2023-04-24T11:47:39;99887.00;;;
79495;BMP180;68951;53.130;18.104;2023-04-24T11:50:11;99886.40;;;
79495;BMP180;68951;53.130;18.104;2023-04-24T11:52:41;99893.00;;;
79495;BMP180;68951;53.130;18.104;2023-04-24T11:57:59;99898.40;;;
79495;BMP180;68951;53.130;18.104;2023-04-24T12:00:30;99888.40;;;
79495;BMP180;68951;53.130;18.104;2023-04-24T12:03:11;99891.00;;;
79495;BMP180;68951;53.130;18.104;2023-04-24T12:05:39;99886.60;;;
79495;BMP180;68951;53.130;18.104;2023-04-24T12:08:06;99887.80;;;
79495;BMP180;68951;53.130;18.104;2023-04-24T12:10:34;99881.40;;;
79495;BMP180;68951;53.130;18.104;2023-04-24T12:13:01;99869.60;;;
79495;BMP180;68951;53.130;18.104;2023-04-24T12:15:29;99872.60;;;
79495;BMP180;68951;53.130;18.104;2023-04-24T12:17:56;99871.60;;;
79495;BMP180;68951;53.130;18.104;2023-04-24T12:20:32;99872.40;;;
79495;BMP180;68951;53.130;18.104;2023-04-24T12:23:01;99863.80;;;
79495;BMP180;68951;53.130;18.104;2023-04-24T12:25:31;99864.80;;;
79495;BMP180;68951;53.130;18.104;2023-04-24T12:30:40;99868.00;;;
79495;BMP180;68951;53.130;18.104;2023-04-24T12:33:07;99867.00;;;
79495;BMP180;68951;53.130;18.104;2023-04-24T12:35:34;99859.00;;;
79495;BMP180;68951;53.130;18.104;2023-04-24T12:38:10;99860.60;;;
79495;BMP180;68951;53.130;18.104;2023-04-24T12:40:40;99853.20;;;
79495;BMP180;68951;53.130;18.104;2023-04-24T12:43:19;99853.20;;;
79495;BMP180;68951;53.130;18.104;2023-04-24T12:45:48;99858.00;;;
79495;BMP180;68951;53.130;18.104;2023-04-24T12:48:14;99852.00;;;
79495;BMP180;68951;53.130;18.104;2023-04-24T12:50:42;99843.20;;;
79495;BMP180;68951;53.130;18.104;2023-04-24T12:53:10;99848.20;;;
79495;BMP180;68951;53.130;18.104;2023-04-24T12:55:37;99841.00;;;
79495;BMP180;68951;53.130;18.104;2023-04-24T12:58:04;99849.40;;;
79495;BMP180;68951;53.130;18.104;2023-04-24T13:00:31;99838.60;;;
79495;BMP180;68951;53.130;18.104;2023-04-24T13:02:58;99840.60;;;
79495;BMP180;68951;53.130;18.104;2023-04-24T13:05:25;99839.60;;;
79495;BMP180;68951;53.130;18.104;2023-04-24T13:07:52;99842.00;;;
79495;BMP180;68951;53.130;18.104;2023-04-24T13:10:19;99843.60;;;
79495;BMP180;68951;53.130;18.104;2023-04-24T13:12:46;99849.60;;;
79495;BMP180;68951;53.130;18.104;2023-04-24T13:15:13;99842.80;;;
79495;BMP180;68951;53.130;18.104;2023-04-24T13:17:40;99837.20;;;
79495;BMP180;68951;53.130;18.104;2023-04-24T13:20:07;99833.60;;;
79495;BMP180;68951;53.130;18.104;2023-04-24T13:22:35;99829.40;;;
79495;BMP180;68951;53.130;18.104;2023-04-24T13:25:02;99825.40;;;
79495;BMP180;68951;53.130;18.104;2023-04-24T13:27:30;99831.60;;;
79495;BMP180;68951;53.130;18.104;2023-04-24T13:29:57;99826.20;;;
79495;BMP180;68951;53.130;18.104;2023-04-24T13:32:23;99827.60;;;
79495;BMP180;68951;53.130;18.104;2023-04-24T13:34:50;99820.80;;;
79495;BMP180;68951;53.130;18.104;2023-04-24T13:37:17;99827.20;;;
79495;BMP180;68951;53.130;18.104;2023-04-24T13:39:44;99816.40;;;
79495;BMP180;68951;53.130;18.104;2023-04-24T13:42:11;99822.40;;;
79495;BMP180;68951;53.130;18.104;2023-04-24T13:44:38;99815.00;;;
79495;BMP180;68951;53.130;18.104;2023-04-24T13:47:04;99820.40;;;
79495;BMP180;68951;53.130;18.104;2023-04-24T13:49:32;99817.20;;;
79495;BMP180;68951;53.130;18.104;2023-04-24T13:51:59;99824.00;;;
79495;BMP180;68951;53.130;18.104;2023-04-24T13:54:26;99823.60;;;
79495;BMP180;68951;53.130;18.104;2023-04-24T13:56:53;99819.60;;;
79495;BMP180;68951;53.130;18.104;2023-04-24T13:59:20;99816.40;;;
79495;BMP180;68951;53.130;18.104;2023-04-24T14:01:48;99817.60;;;
79495;BMP180;68951;53.130;18.104;2023-04-24T14:04:15;99813.60;;;
79495;BMP180;68951;53.130;18.104;2023-04-24T14:06:43;99817.80;;;
79495;BMP180;68951;53.130;18.104;2023-04-24T14:09:10;99819.00;;;
79495;BMP180;68951;53.130;18.104;2023-04-24T14:11:37;99811.80;;;
79495;BMP180;68951;53.130;18.104;2023-04-24T14:14:05;99812.40;;;
79495;BMP180;68951;53.130;18.104;2023-04-24T14:16:32;99806.40;;;
79495;BMP180;68951;53.130;18.104;2023-04-24T14:18:59;99807.00;;;
79495;BMP180;68951;53.130;18.104;2023-04-24T14:21:26;99805.80;;;
79495;BMP180;68951;53.130;18.104;2023-04-24T14:23:52;99801.20;;;
79495;BMP180;68951;53.130;18.104;2023-04-24T14:26:19;99809.60;;;
79495;BMP180;68951;53.130;18.104;2023-04-24T14:28:46;99804.60;;;
79495;BMP180;68951;53.130;18.104;2023-04-24T14:31:13;99796.80;;;
79495;BMP180;68951;53.130;18.104;2023-04-24T14:33:40;99796.20;;;
79495;BMP180;68951;53.130;18.104;2023-04-24T14:36:07;99805.20;;;
79495;BMP180;68951;53.130;18.104;2023-04-24T14:38:34;99797.60;;;
79495;BMP180;68951;53.130;18.104;2023-04-24T14:41:01;99794.40;;;
79495;BMP180;68951;53.130;18.104;2023-04-24T14:43:33;99792.00;;;
79495;BMP180;68951;53.130;18.104;2023-04-24T14:46:02;99791.80;;;
79495;BMP180;68951;53.130;18.104;2023-04-24T14:48:29;99789.00;;;
79495;BMP180;68951;53.130;18.104;2023-04-24T14:50:57;99784.00;;;
79495;BMP180;68951;53.130;18.104;2023-04-24T14:53:24;99777.80;;;
79495;BMP180;68951;53.130;18.104;2023-04-24T14:55:51;99783.20;;;
79495;BMP180;68951;53.130;18.104;2023-04-24T14:58:18;99789.20;;;
79495;BMP180;68951;53.130;18.104;2023-04-24T15:00:45;99774.40;;;
79495;BMP180;68951;53.130;18.104;2023-04-24T15:03:12;99771.80;;;
79495;BMP180;68951;53.130;18.104;2023-04-24T15:05:39;99775.20;;;
79495;BMP180;68951;53.130;18.104;2023-04-24T15:08:06;99768.20;;;
79495;BMP180;68951;53.130;18.104;2023-04-24T15:10:33;99767.80;;;
79495;BMP180;68951;53.130;18.104;2023-04-24T15:13:00;99767.00;;;